sensor_id;sensor_type;location;lat;lon;timestamp;pressure;altitude;pressure_sealevel;temperature;humidity
68634;BME280;55625;47.072;22.192;2023-04-07T00:01:49;99522.75;;;0.23;100.00
68634;BME280;55625;47.072;22.192;2023-04-07T00:04:15;99530.72;;;0.25;100.00
68634;BME280;55625;47.072;22.192;2023-04-07T00:06:41;99527.53;;;0.26;100.00
68634;BME280;55625;47.072;22.192;2023-04-07T00:09:09;99531.53;;;0.25;100.00
68634;BME280;55625;47.072;22.192;2023-04-07T00:11:37;99531.53;;;0.25;100.00
68634;BME280;55625;47.072;22.192;2023-04-07T00:14:03;99530.34;;;0.26;100.00
68634;BME280;55625;47.072;22.192;2023-04-07T00:16:29;99524.38;;;0.28;100.00
68634;BME280;55625;47.072;22.192;2023-04-07T00:18:54;99517.59;;;0.29;100.00
68634;BME280;55625;47.072;22.192;2023-04-07T00:21:20;99521.19;;;0.29;100.00
68634;BME280;55625;47.072;22.192;2023-04-07T00:23:46;99522.78;;;0.30;100.00
68634;BME280;55625;47.072;22.192;2023-04-07T00:26:13;99521.63;;;0.32;100.00
68634;BME280;55625;47.072;22.192;2023-04-07T00:28:38;99519.63;;;0.32;100.00
68634;BME280;55625;47.072;22.192;2023-04-07T00:31:04;99513.25;;;0.32;100.00
68634;BME280;55625;47.072;22.192;2023-04-07T00:33:30;99517.19;;;0.30;100.00
68634;BME280;55625;47.072;22.192;2023-04-07T00:35:56;99511.63;;;0.30;100.00
68634;BME280;55625;47.072;22.192;2023-04-07T00:38:23;99507.66;;;0.32;100.00
68634;BME280;55625;47.072;22.192;2023-04-07T00:40:49;99510.88;;;0.34;100.00
68634;BME280;55625;47.072;22.192;2023-04-07T00:43:15;99514.06;;;0.36;100.00
68634;BME280;55625;47.072;22.192;2023-04-07T00:45:41;99511.66;;;0.34;100.00
68634;BME280;55625;47.072;22.192;2023-04-07T00:48:07;99507.66;;;0.32;100.00
68634;BME280;55625;47.072;22.192;2023-04-07T00:50:34;99508.84;;;0.30;100.00
68634;BME280;55625;47.072;22.192;2023-04-07T00:53:00;99508.41;;;0.28;100.00
68634;BME280;55625;47.072;22.192;2023-04-07T00:55:27;99509.19;;;0.25;100.00
68634;BME280;55625;47.072;22.192;2023-04-07T00:57:53;99503.63;;;0.25;100.00
68634;BME280;55625;47.072;22.192;2023-04-07T01:00:19;99516.38;;;0.26;100.00
68634;BME280;55625;47.072;22.192;2023-04-07T01:03:00;99503.63;;;0.25;100.00
68634;BME280;55625;47.072;22.192;2023-04-07T01:05:42;99511.59;;;0.23;100.00
68634;BME280;55625;47.072;22.192;2023-04-07T01:08:31;99511.59;;;0.23;100.00
68634;BME280;55625;47.072;22.192;2023-04-07T01:13:53;99520.38;;;0.25;100.00
68634;BME280;55625;47.072;22.192;2023-04-07T01:16:51;99508.41;;;0.25;100.00
68634;BME280;55625;47.072;22.192;2023-04-07T01:19:36;99518.75;;;0.24;100.00
68634;BME280;55625;47.072;22.192;2023-04-07T01:22:14;99517.56;;;0.25;100.00
68634;BME280;55625;47.072;22.192;2023-04-07T01:30:45;99510.81;;;0.26;100.00
68634;BME280;55625;47.072;22.192;2023-04-07T01:33:13;99513.59;;;0.26;100.00
68634;BME280;55625;47.072;22.192;2023-04-07T01:35:40;99512.00;;;0.25;100.00
68634;BME280;55625;47.072;22.192;2023-04-07T01:38:07;99512.00;;;0.25;100.00
68634;BME280;55625;47.072;22.192;2023-04-07T01:40:34;99509.19;;;0.25;100.00
68634;BME280;55625;47.072;22.192;2023-04-07T01:43:02;99505.63;;;0.25;100.00
68634;BME280;55625;47.072;22.192;2023-04-07T01:45:29;99513.59;;;0.26;100.00
68634;BME280;55625;47.072;22.192;2023-04-07T01:47:58;99510.41;;;0.28;100.00
68634;BME280;55625;47.072;22.192;2023-04-07T01:50:25;99504.44;;;0.29;100.00
68634;BME280;55625;47.072;22.192;2023-04-07T01:52:52;99515.25;;;0.31;100.00
68634;BME280;55625;47.072;22.192;2023-04-07T01:55:20;99516.84;;;0.32;100.00
68634;BME280;55625;47.072;22.192;2023-04-07T01:57:46;99513.25;;;0.32;100.00
68634;BME280;55625;47.072;22.192;2023-04-07T02:00:12;99522.41;;;0.32;100.00
68634;BME280;55625;47.072;22.192;2023-04-07T02:02:43;99512.06;;;0.33;100.00
68634;BME280;55625;47.072;22.192;2023-04-07T02:05:13;99513.66;;;0.34;100.00
68634;BME280;55625;47.072;22.192;2023-04-07T02:08:00;99508.88;;;0.34;100.00
68634;BME280;55625;47.072;22.192;2023-04-07T02:10:27;99520.44;;;0.33;100.00
68634;BME280;55625;47.072;22.192;2023-04-07T02:12:55;99514.06;;;0.36;100.00
68634;BME280;55625;47.072;22.192;2023-04-07T02:15:23;99516.84;;;0.36;100.00
68634;BME280;55625;47.072;22.192;2023-04-07T02:17:52;99511.66;;;0.34;100.00
68634;BME280;55625;47.072;22.192;2023-04-07T02:20:21;99509.69;;;0.35;100.00
68634;BME280;55625;47.072;22.192;2023-04-07T02:22:47;99513.66;;;0.34;100.00
68634;BME280;55625;47.072;22.192;2023-04-07T02:25:31;99509.28;;;0.33;100.00
68634;BME280;55625;47.072;22.192;2023-04-07T02:27:59;99512.81;;;0.29;100.00
68634;BME280;55625;47.072;22.192;2023-04-07T02:30:26;99508.84;;;0.30;100.00
68634;BME280;55625;47.072;22.192;2023-04-07T02:32:53;99510.03;;;0.29;100.00
68634;BME280;55625;47.072;22.192;2023-04-07T02:35:18;99508.03;;;0.30;100.00
68634;BME280;55625;47.072;22.192;2023-04-07T02:37:45;99508.41;;;0.28;100.00
68634;BME280;55625;47.072;22.192;2023-04-07T02:40:12;99518.41;;;0.29;100.00
68634;BME280;55625;47.072;22.192;2023-04-07T02:42:39;99508.03;;;0.30;100.00
68634;BME280;55625;47.072;22.192;2023-04-07T02:45:07;99514.00;;;0.28;100.00
68634;BME280;55625;47.072;22.192;2023-04-07T02:47:35;99511.63;;;0.30;100.00
68634;BME280;55625;47.072;22.192;2023-04-07T02:50:02;99509.66;;;0.31;100.00
68634;BME280;55625;47.072;22.192;2023-04-07T02:52:28;99513.25;;;0.32;100.00
68634;BME280;55625;47.072;22.192;2023-04-07T02:54:54;99508.41;;;0.28;100.00
68634;BME280;55625;47.072;22.192;2023-04-07T02:57:20;99516.78;;;0.28;100.00
68634;BME280;55625;47.072;22.192;2023-04-07T02:59:46;99514.00;;;0.28;100.00
68634;BME280;55625;47.072;22.192;2023-04-07T03:02:11;99513.19;;;0.28;100.00
68634;BME280;55625;47.072;22.192;2023-04-07T03:04:37;99509.63;;;0.27;100.00
68634;BME280;55625;47.072;22.192;2023-04-07T03:07:03;99510.81;;;0.26;100.00
68634;BME280;55625;47.072;22.192;2023-04-07T03:09:29;99518.38;;;0.26;100.00
68634;BME280;55625;47.072;22.192;2023-04-07T03:11:55;99511.19;;;0.25;100.00
68634;BME280;55625;47.072;22.192;2023-04-07T03:14:21;99517.16;;;0.23;100.00
68634;BME280;55625;47.072;22.192;2023-04-07T03:16:47;99515.97;;;0.24;100.00
68634;BME280;55625;47.072;22.192;2023-04-07T03:19:12;99514.78;;;0.25;100.00
68634;BME280;55625;47.072;22.192;2023-04-07T03:21:38;99518.75;;;0.24;100.00
68634;BME280;55625;47.072;22.192;2023-04-07T03:24:06;99524.34;;;0.24;100.00
68634;BME280;55625;47.072;22.192;2023-04-07T03:26:32;99521.16;;;0.22;100.00
68634;BME280;55625;47.072;22.192;2023-04-07T03:28:58;99517.56;;;0.22;100.00
68634;BME280;55625;47.072;22.192;2023-04-07T03:31:23;99525.94;;;0.22;100.00
68634;BME280;55625;47.072;22.192;2023-04-07T03:33:49;99522.34;;;0.21;100.00
68634;BME280;55625;47.072;22.192;2023-04-07T03:36:16;99522.75;;;0.23;100.00
68634;BME280;55625;47.072;22.192;2023-04-07T03:38:46;99519.53;;;0.21;100.00
68634;BME280;55625;47.072;22.192;2023-04-07T03:41:13;99523.13;;;0.22;100.00
68634;BME280;55625;47.072;22.192;2023-04-07T03:43:38;99525.94;;;0.22;100.00
68634;BME280;55625;47.072;22.192;2023-04-07T03:46:05;99527.13;;;0.21;100.00
68634;BME280;55625;47.072;22.192;2023-04-07T03:48:31;99530.72;;;0.21;100.00
68634;BME280;55625;47.072;22.192;2023-04-07T03:50:56;99531.50;;;0.22;100.00
68634;BME280;55625;47.072;22.192;2023-04-07T03:53:22;99525.53;;;0.23;100.00
68634;BME280;55625;47.072;22.192;2023-04-07T03:55:48;99538.72;;;0.26;100.00
68634;BME280;55625;47.072;22.192;2023-04-07T03:58:15;99541.91;;;0.28;100.00
68634;BME280;55625;47.072;22.192;2023-04-07T04:00:41;99543.50;;;0.29;100.00
68634;BME280;55625;47.072;22.192;2023-04-07T04:03:07;99544.69;;;0.28;100.00
68634;BME280;55625;47.072;22.192;2023-04-07T04:05:33;99547.09;;;0.30;100.00
68634;BME280;55625;47.072;22.192;2023-04-07T04:07:58;99549.09;;;0.29;100.00
68634;BME280;55625;47.072;22.192;2023-04-07T04:10:24;99553.47;;;0.30;100.00
68634;BME280;55625;47.072;22.192;2023-04-07T04:12:50;99552.31;;;0.32;100.00
68634;BME280;55625;47.072;22.192;2023-04-07T04:15:16;99550.69;;;0.30;100.00
68634;BME280;55625;47.072;22.192;2023-04-07T04:17:42;99550.69;;;0.30;100.00
68634;BME280;55625;47.072;22.192;2023-04-07T04:20:08;99553.91;;;0.33;100.00
68634;BME280;55625;47.072;22.192;2023-04-07T04:22:34;99553.91;;;0.33;100.00
68634;BME280;55625;47.072;22.192;2023-04-07T04:25:00;99555.53;;;0.34;100.00
68634;BME280;55625;47.072;22.192;2023-04-07T04:27:27;99560.31;;;0.37;100.00
68634;BME280;55625;47.072;22.192;2023-04-07T04:29:53;99563.94;;;0.41;100.00
68634;BME280;55625;47.072;22.192;2023-04-07T04:32:19;99563.94;;;0.41;100.00
68634;BME280;55625;47.072;22.192;2023-04-07T04:34:45;99564.75;;;0.45;100.00
68634;BME280;55625;47.072;22.192;2023-04-07T04:37:11;99569.16;;;0.46;100.00
68634;BME280;55625;47.072;22.192;2023-04-07T04:39:37;99573.16;;;0.48;100.00
68634;BME280;55625;47.072;22.192;2023-04-07T04:42:04;99574.75;;;0.49;100.00
68634;BME280;55625;47.072;22.192;2023-04-07T04:44:30;99573.16;;;0.48;100.00
68634;BME280;55625;47.072;22.192;2023-04-07T04:46:56;99581.53;;;0.52;100.00
68634;BME280;55625;47.072;22.192;2023-04-07T04:49:22;99580.34;;;0.53;100.00
68634;BME280;55625;47.072;22.192;2023-04-07T04:51:48;99575.97;;;0.52;100.00
68634;BME280;55625;47.072;22.192;2023-04-07T04:54:15;99587.13;;;0.52;100.00
68634;BME280;55625;47.072;22.192;2023-04-07T04:56:41;99577.56;;;0.53;100.00
68634;BME280;55625;47.072;22.192;2023-04-07T04:59:07;99580.75;;;0.55;100.00
68634;BME280;55625;47.072;22.192;2023-04-07T05:01:33;99587.94;;;0.56;100.00
68634;BME280;55625;47.072;22.192;2023-04-07T05:03:59;99592.34;;;0.57;100.00
68634;BME280;55625;47.072;22.192;2023-04-07T05:06:25;99583.16;;;0.56;100.00
68634;BME280;55625;47.072;22.192;2023-04-07T05:08:52;99585.16;;;0.56;100.00
68634;BME280;55625;47.072;22.192;2023-04-07T05:11:18;99589.53;;;0.57;100.00
68634;BME280;55625;47.072;22.192;2023-04-07T05:13:44;99584.34;;;0.55;100.00
68634;BME280;55625;47.072;22.192;2023-04-07T05:16:10;99591.16;;;0.58;100.00
68634;BME280;55625;47.072;22.192;2023-04-07T05:18:36;99598.31;;;0.59;100.00
68634;BME280;55625;47.072;22.192;2023-04-07T05:21:02;99592.78;;;0.63;100.00
68634;BME280;55625;47.072;22.192;2023-04-07T05:23:27;99598.78;;;0.65;100.00
68634;BME280;55625;47.072;22.192;2023-04-07T05:25:53;99589.22;;;0.66;100.00
68634;BME280;55625;47.072;22.192;2023-04-07T05:28:19;99600.38;;;0.66;100.00
68634;BME280;55625;47.072;22.192;2023-04-07T05:30:46;99602.41;;;0.69;100.00
68634;BME280;55625;47.072;22.192;2023-04-07T05:33:14;99597.22;;;0.71;100.00
68634;BME280;55625;47.072;22.192;2023-04-07T05:35:42;99602.81;;;0.74;100.00
68634;BME280;55625;47.072;22.192;2023-04-07T05:38:08;99607.22;;;0.75;100.00
68634;BME280;55625;47.072;22.192;2023-04-07T05:40:35;99614.03;;;0.81;100.00
68634;BME280;55625;47.072;22.192;2023-04-07T05:43:01;99612.44;;;0.84;100.00
68634;BME280;55625;47.072;22.192;2023-04-07T05:45:27;99606.88;;;0.87;100.00
68634;BME280;55625;47.072;22.192;2023-04-07T05:47:52;99606.09;;;0.90;100.00
68634;BME280;55625;47.072;22.192;2023-04-07T05:50:18;99607.34;;;0.97;100.00
68634;BME280;55625;47.072;22.192;2023-04-07T05:52:44;99610.16;;;1.00;100.00
68634;BME280;55625;47.072;22.192;2023-04-07T05:55:11;99606.56;;;1.03;100.00
68634;BME280;55625;47.072;22.192;2023-04-07T05:57:36;99599.78;;;1.08;100.00
68634;BME280;55625;47.072;22.192;2023-04-07T06:00:03;99601.00;;;1.14;100.00
68634;BME280;55625;47.072;22.192;2023-04-07T06:02:29;99611.00;;;1.18;100.00
68634;BME280;55625;47.072;22.192;2023-04-07T06:04:55;99608.66;;;1.24;100.00
68634;BME280;55625;47.072;22.192;2023-04-07T06:07:21;99613.84;;;1.29;100.00
68634;BME280;55625;47.072;22.192;2023-04-07T06:09:47;99617.84;;;1.28;100.00
68634;BME280;55625;47.072;22.192;2023-04-07T06:12:13;99615.84;;;1.25;100.00
68634;BME280;55625;47.072;22.192;2023-04-07T06:14:39;99615.06;;;1.28;100.00
68634;BME280;55625;47.072;22.192;2023-04-07T06:17:05;99616.25;;;1.31;100.00
68634;BME280;55625;47.072;22.192;2023-04-07T06:19:32;99619.84;;;1.31;100.00
68634;BME280;55625;47.072;22.192;2023-04-07T06:21:58;99617.47;;;1.33;100.00
68634;BME280;55625;47.072;22.192;2023-04-07T06:24:23;99625.03;;;1.29;100.00
68634;BME280;55625;47.072;22.192;2023-04-07T06:26:53;99617.06;;;1.28;100.00
68634;BME280;55625;47.072;22.192;2023-04-07T06:29:19;99623.03;;;1.30;100.00
68634;BME280;55625;47.072;22.192;2023-04-07T06:31:45;99622.66;;;1.31;100.00
68634;BME280;55625;47.072;22.192;2023-04-07T06:34:11;99623.84;;;1.34;100.00
68634;BME280;55625;47.072;22.192;2023-04-07T06:36:36;99614.28;;;1.38;100.00
68634;BME280;55625;47.072;22.192;2023-04-07T06:39:03;99631.06;;;1.45;100.00
68634;BME280;55625;47.072;22.192;2023-04-07T06:41:28;99623.50;;;1.49;100.00
68634;BME280;55625;47.072;22.192;2023-04-07T06:43:54;99622.75;;;1.56;100.00
68634;BME280;55625;47.072;22.192;2023-04-07T06:46:20;99635.13;;;1.66;100.00
68634;BME280;55625;47.072;22.192;2023-04-07T06:48:46;99626.34;;;1.74;100.00
68634;BME280;55625;47.072;22.192;2023-04-07T06:51:12;99631.16;;;1.81;100.00
68634;BME280;55625;47.072;22.192;2023-04-07T06:53:38;99633.19;;;1.88;100.00
68634;BME280;55625;47.072;22.192;2023-04-07T06:56:09;99631.59;;;1.97;100.00
68634;BME280;55625;47.072;22.192;2023-04-07T06:58:36;99642.41;;;2.09;100.00
68634;BME280;55625;47.072;22.192;2023-04-07T07:01:03;99643.22;;;2.21;100.00
68634;BME280;55625;47.072;22.192;2023-04-07T07:03:30;99646.41;;;2.30;100.00
68634;BME280;55625;47.072;22.192;2023-04-07T07:05:59;99639.22;;;2.39;100.00
68634;BME280;55625;47.072;22.192;2023-04-07T07:08:27;99642.84;;;2.47;100.00
68634;BME280;55625;47.072;22.192;2023-04-07T07:10:53;99651.63;;;2.53;100.00
68634;BME280;55625;47.072;22.192;2023-04-07T07:13:23;99648.41;;;2.61;100.00
68634;BME280;55625;47.072;22.192;2023-04-07T07:15:50;99645.59;;;2.61;98.90
68634;BME280;55625;47.072;22.192;2023-04-07T07:18:17;99652.00;;;2.65;99.29
68634;BME280;55625;47.072;22.192;2023-04-07T07:20:43;99646.78;;;2.82;98.41
68634;BME280;55625;47.072;22.192;2023-04-07T07:23:09;99657.97;;;2.89;97.11
68634;BME280;55625;47.072;22.192;2023-04-07T07:25:35;99652.75;;;2.94;97.60
68634;BME280;55625;47.072;22.192;2023-04-07T07:28:01;99654.75;;;2.97;96.68
68634;BME280;55625;47.072;22.192;2023-04-07T07:30:27;99663.56;;;2.92;95.82
68634;BME280;55625;47.072;22.192;2023-04-07T07:32:54;99669.56;;;3.01;97.22
68634;BME280;55625;47.072;22.192;2023-04-07T07:35:20;99670.75;;;3.07;96.14
68634;BME280;55625;47.072;22.192;2023-04-07T07:37:46;99665.94;;;3.04;96.19
68634;BME280;55625;47.072;22.192;2023-04-07T07:40:13;99671.94;;;3.03;95.36
68634;BME280;55625;47.072;22.192;2023-04-07T07:42:40;99677.97;;;2.98;94.96
68634;BME280;55625;47.072;22.192;2023-04-07T07:45:06;99679.16;;;3.00;95.50
68634;BME280;55625;47.072;22.192;2023-04-07T07:47:32;99677.56;;;2.99;94.64
68634;BME280;55625;47.072;22.192;2023-04-07T07:49:58;99685.19;;;2.95;95.23
68634;BME280;55625;47.072;22.192;2023-04-07T07:52:24;99690.38;;;3.00;95.66
68634;BME280;55625;47.072;22.192;2023-04-07T07:54:50;99685.16;;;3.02;96.01
68634;BME280;55625;47.072;22.192;2023-04-07T07:57:16;99687.16;;;3.16;95.21
68634;BME280;55625;47.072;22.192;2023-04-07T07:59:42;99693.09;;;3.36;96.01
68634;BME280;55625;47.072;22.192;2023-04-07T08:02:08;99691.84;;;3.51;95.59
68634;BME280;55625;47.072;22.192;2023-04-07T08:04:35;99681.44;;;3.48;94.77
68634;BME280;55625;47.072;22.192;2023-04-07T08:07:02;99684.66;;;3.36;92.38
68634;BME280;55625;47.072;22.192;2023-04-07T08:09:29;99701.53;;;3.39;93.96
68634;BME280;55625;47.072;22.192;2023-04-07T08:11:57;99707.13;;;3.39;94.48
68634;BME280;55625;47.072;22.192;2023-04-07T08:14:24;99700.69;;;3.35;93.11
68634;BME280;55625;47.072;22.192;2023-04-07T08:16:50;99691.06;;;3.47;94.34
68634;BME280;55625;47.072;22.192;2023-04-07T08:19:16;99697.09;;;3.42;93.62
68634;BME280;55625;47.072;22.192;2023-04-07T08:21:42;99704.72;;;3.41;93.51
68634;BME280;55625;47.072;22.192;2023-04-07T08:24:08;99699.06;;;3.49;92.48
68634;BME280;55625;47.072;22.192;2023-04-07T08:26:34;99698.69;;;3.47;92.52
68634;BME280;55625;47.072;22.192;2023-04-07T08:29:00;99693.09;;;3.43;91.92
68634;BME280;55625;47.072;22.192;2023-04-07T08:31:26;99699.13;;;3.38;93.03
68634;BME280;55625;47.072;22.192;2023-04-07T08:33:52;99693.84;;;3.54;93.16
68634;BME280;55625;47.072;22.192;2023-04-07T08:36:24;99687.34;;;3.75;93.69
68634;BME280;55625;47.072;22.192;2023-04-07T08:38:51;99698.03;;;3.98;92.37
68634;BME280;55625;47.072;22.192;2023-04-07T08:41:38;99691.47;;;4.22;91.80
68634;BME280;55625;47.072;22.192;2023-04-07T08:44:05;99697.78;;;4.41;88.68
68634;BME280;55625;47.072;22.192;2023-04-07T08:46:32;99696.53;;;4.45;87.39
68634;BME280;55625;47.072;22.192;2023-04-07T08:49:00;99695.22;;;4.60;86.28
68634;BME280;55625;47.072;22.192;2023-04-07T08:51:31;99699.41;;;4.83;86.89
68634;BME280;55625;47.072;22.192;2023-04-07T08:54:09;99701.41;;;4.86;84.40
68634;BME280;55625;47.072;22.192;2023-04-07T08:56:38;99697.00;;;4.85;84.89
68634;BME280;55625;47.072;22.192;2023-04-07T08:59:07;99695.81;;;4.82;83.65
68634;BME280;55625;47.072;22.192;2023-04-07T09:01:35;99696.63;;;4.83;83.81
68634;BME280;55625;47.072;22.192;2023-04-07T09:04:03;99695.72;;;4.93;84.08
68634;BME280;55625;47.072;22.192;2023-04-07T09:06:30;99693.53;;;5.11;84.02
68634;BME280;55625;47.072;22.192;2023-04-07T09:09:00;99701.84;;;5.25;85.70
68634;BME280;55625;47.072;22.192;2023-04-07T09:11:27;99699.56;;;5.47;84.54
68634;BME280;55625;47.072;22.192;2023-04-07T09:13:56;99700.19;;;5.28;80.28
68634;BME280;55625;47.072;22.192;2023-04-07T09:16:24;99701.13;;;5.14;81.25
68634;BME280;55625;47.072;22.192;2023-04-07T09:18:52;99703.00;;;5.28;82.27
68634;BME280;55625;47.072;22.192;2023-04-07T09:21:18;99695.38;;;5.28;83.26
68634;BME280;55625;47.072;22.192;2023-04-07T09:23:45;99697.59;;;5.44;83.77
68634;BME280;55625;47.072;22.192;2023-04-07T09:28:56;99698.09;;;5.70;78.82
68634;BME280;55625;47.072;22.192;2023-04-07T09:31:42;99693.16;;;5.77;78.97
68634;BME280;55625;47.072;22.192;2023-04-07T09:34:27;99703.31;;;5.71;78.94
68634;BME280;55625;47.072;22.192;2023-04-07T09:36:54;99698.78;;;5.77;83.55
68634;BME280;55625;47.072;22.192;2023-04-07T09:39:22;99697.16;;;5.80;83.72
68634;BME280;55625;47.072;22.192;2023-04-07T09:41:48;99703.09;;;5.89;84.96
68634;BME280;55625;47.072;22.192;2023-04-07T09:44:14;99700.28;;;5.89;82.00
68634;BME280;55625;47.072;22.192;2023-04-07T09:46:57;99696.97;;;5.98;82.00
68634;BME280;55625;47.072;22.192;2023-04-07T09:49:24;99694.03;;;6.05;83.23
68634;BME280;55625;47.072;22.192;2023-04-07T09:51:59;99697.75;;;5.98;79.53
68634;BME280;55625;47.072;22.192;2023-04-07T09:54:39;99692.22;;;5.91;79.66
68634;BME280;55625;47.072;22.192;2023-04-07T09:57:10;99711.88;;;5.95;79.75
68634;BME280;55625;47.072;22.192;2023-04-07T09:59:40;99692.06;;;6.02;79.35
68634;BME280;55625;47.072;22.192;2023-04-07T10:02:12;99690.84;;;6.03;80.45
68634;BME280;55625;47.072;22.192;2023-04-07T10:04:38;99696.38;;;6.10;80.32
68634;BME280;55625;47.072;22.192;2023-04-07T10:07:05;99700.41;;;6.12;80.59
68634;BME280;55625;47.072;22.192;2023-04-07T10:09:31;99699.25;;;6.06;78.58
68634;BME280;55625;47.072;22.192;2023-04-07T10:11:58;99704.97;;;5.99;80.55
68634;BME280;55625;47.072;22.192;2023-04-07T10:14:31;99700.91;;;6.04;81.77
68634;BME280;55625;47.072;22.192;2023-04-07T10:17:03;99701.59;;;6.11;82.42
68634;BME280;55625;47.072;22.192;2023-04-07T10:19:32;99701.56;;;6.15;85.06
68634;BME280;55625;47.072;22.192;2023-04-07T10:22:01;99698.09;;;6.04;83.77
68634;BME280;55625;47.072;22.192;2023-04-07T10:25:01;99711.03;;;5.98;85.80
68634;BME280;55625;47.072;22.192;2023-04-07T10:27:33;99708.72;;;5.89;85.34
68634;BME280;55625;47.072;22.192;2023-04-07T10:30:00;99720.09;;;5.78;83.69
68634;BME280;55625;47.072;22.192;2023-04-07T10:32:28;99718.50;;;5.77;84.13
68634;BME280;55625;47.072;22.192;2023-04-07T10:34:56;99711.66;;;5.78;85.33
68634;BME280;55625;47.072;22.192;2023-04-07T10:37:24;99712.06;;;5.77;83.48
68634;BME280;55625;47.072;22.192;2023-04-07T10:42:44;99714.25;;;5.66;84.78
68634;BME280;55625;47.072;22.192;2023-04-07T10:45:11;99711.84;;;5.64;86.21
68634;BME280;55625;47.072;22.192;2023-04-07T10:50:28;99714.91;;;5.43;86.64
68634;BME280;55625;47.072;22.192;2023-04-07T10:53:11;99717.34;;;5.41;85.86
68634;BME280;55625;47.072;22.192;2023-04-07T10:55:42;99723.38;;;5.39;86.18
68634;BME280;55625;47.072;22.192;2023-04-07T10:58:21;99719.34;;;5.40;85.44
68634;BME280;55625;47.072;22.192;2023-04-07T11:03:28;99714.59;;;5.34;85.10
68634;BME280;55625;47.072;22.192;2023-04-07T11:08:34;99727.66;;;5.13;86.34
68634;BME280;55625;47.072;22.192;2023-04-07T11:11:01;99735.78;;;5.04;85.00
68634;BME280;55625;47.072;22.192;2023-04-07T11:13:27;99729.41;;;5.00;86.39
68634;BME280;55625;47.072;22.192;2023-04-07T11:15:53;99730.63;;;4.99;86.68
68634;BME280;55625;47.072;22.192;2023-04-07T11:18:21;99731.16;;;4.83;84.13
68634;BME280;55625;47.072;22.192;2023-04-07T11:20:54;99734.75;;;4.84;87.92
68634;BME280;55625;47.072;22.192;2023-04-07T11:23:23;99737.59;;;4.80;88.77
68634;BME280;55625;47.072;22.192;2023-04-07T11:26:00;99738.44;;;4.77;89.86
68634;BME280;55625;47.072;22.192;2023-04-07T11:28:27;99736.44;;;4.74;89.15
68634;BME280;55625;47.072;22.192;2023-04-07T11:30:53;99737.72;;;4.66;89.16
68634;BME280;55625;47.072;22.192;2023-04-07T11:33:24;99733.34;;;4.58;88.94
68634;BME280;55625;47.072;22.192;2023-04-07T11:36:01;99741.00;;;4.54;89.40
68634;BME280;55625;47.072;22.192;2023-04-07T11:38:37;99742.25;;;4.49;89.72
68634;BME280;55625;47.072;22.192;2023-04-07T11:41:14;99741.09;;;4.43;90.61
68634;BME280;55625;47.072;22.192;2023-04-07T11:43:40;99736.28;;;4.44;92.15
68634;BME280;55625;47.072;22.192;2023-04-07T11:46:24;99736.16;;;4.58;91.96
68634;BME280;55625;47.072;22.192;2023-04-07T11:48:50;99745.28;;;4.76;92.81
68634;BME280;55625;47.072;22.192;2023-04-07T11:51:21;99738.47;;;4.74;95.55
68634;BME280;55625;47.072;22.192;2023-04-07T11:53:54;99745.25;;;4.80;94.40
68634;BME280;55625;47.072;22.192;2023-04-07T11:56:21;99747.47;;;5.03;93.50
68634;BME280;55625;47.072;22.192;2023-04-07T11:58:51;99753.88;;;5.03;91.54
68634;BME280;55625;47.072;22.192;2023-04-07T12:01:18;99750.84;;;4.80;91.04
68634;BME280;55625;47.072;22.192;2023-04-07T12:04:02;99754.41;;;4.91;93.21
68634;BME280;55625;47.072;22.192;2023-04-07T12:06:34;99743.69;;;5.16;94.45
68634;BME280;55625;47.072;22.192;2023-04-07T12:09:01;99749.28;;;5.23;94.54
68634;BME280;55625;47.072;22.192;2023-04-07T12:11:27;99742.53;;;5.14;93.96
68634;BME280;55625;47.072;22.192;2023-04-07T12:13:53;99745.25;;;5.24;91.97
68634;BME280;55625;47.072;22.192;2023-04-07T12:16:20;99742.63;;;5.03;94.40
68634;BME280;55625;47.072;22.192;2023-04-07T12:18:46;99746.94;;;4.70;94.12
68634;BME280;55625;47.072;22.192;2023-04-07T12:21:12;99741.56;;;4.86;96.52
68634;BME280;55625;47.072;22.192;2023-04-07T12:23:38;99750.25;;;5.06;93.94
68634;BME280;55625;47.072;22.192;2023-04-07T12:26:04;99745.03;;;5.05;93.72
68634;BME280;55625;47.072;22.192;2023-04-07T12:28:30;99744.50;;;5.20;94.84
68634;BME280;55625;47.072;22.192;2023-04-07T12:30:56;99745.28;;;5.21;92.52
68634;BME280;55625;47.072;22.192;2023-04-07T12:33:22;99745.69;;;5.19;91.93
68634;BME280;55625;47.072;22.192;2023-04-07T12:35:48;99741.56;;;5.31;89.70
68634;BME280;55625;47.072;22.192;2023-04-07T12:38:14;99741.16;;;5.33;88.18
68634;BME280;55625;47.072;22.192;2023-04-07T12:40:40;99751.25;;;5.26;92.16
68634;BME280;55625;47.072;22.192;2023-04-07T12:43:06;99741.44;;;5.42;91.14
68634;BME280;55625;47.072;22.192;2023-04-07T12:45:32;99748.16;;;5.55;91.69
68634;BME280;55625;47.072;22.192;2023-04-07T12:47:58;99752.38;;;5.70;89.44
68634;BME280;55625;47.072;22.192;2023-04-07T12:50:24;99754.28;;;5.80;88.64
68634;BME280;55625;47.072;22.192;2023-04-07T12:52:51;99757.81;;;5.91;88.29
68634;BME280;55625;47.072;22.192;2023-04-07T12:55:18;99766.53;;;6.01;84.68
68634;BME280;55625;47.072;22.192;2023-04-07T12:57:44;99760.44;;;6.06;84.19
68634;BME280;55625;47.072;22.192;2023-04-07T13:00:10;99759.84;;;5.87;87.89
68634;BME280;55625;47.072;22.192;2023-04-07T13:02:36;99753.78;;;5.93;86.08
68634;BME280;55625;47.072;22.192;2023-04-07T13:05:02;99756.13;;;5.60;86.11
68634;BME280;55625;47.072;22.192;2023-04-07T13:07:29;99756.19;;;5.56;85.68
68634;BME280;55625;47.072;22.192;2023-04-07T13:09:55;99757.34;;;5.59;85.69
68634;BME280;55625;47.072;22.192;2023-04-07T13:12:22;99765.78;;;5.59;87.12
68634;BME280;55625;47.072;22.192;2023-04-07T13:14:48;99760.09;;;5.66;87.63
68634;BME280;55625;47.072;22.192;2023-04-07T13:17:14;99765.56;;;5.77;86.56
68634;BME280;55625;47.072;22.192;2023-04-07T13:19:41;99764.72;;;5.83;84.92
68634;BME280;55625;47.072;22.192;2023-04-07T13:22:07;99756.34;;;5.76;82.63